Time;durP1;ratioP1;P1;durP2;ratioP2;P2;SDS_P1;SDS_P2;PMS_P1;PMS_P2;Temp;Humidity;BMP_temperature;BMP_pressure;BME280_temperature;BME280_humidity;BME280_pressure;Samples;Min_cycle;Max_cycle;Signal;HPM_P1;HPM_P2
2021/01/08 00:00:34;;;;;;;9.27;5.20;;;2.70;99.90;;;;;;4160962;28;20042;-78
2021/01/08 00:02:35;;;;;;;8.25;4.57;;;2.70;99.90;;;;;;4162090;28;20029;-78
2021/01/08 00:04:36;;;;;;;6.28;4.82;;;2.60;99.90;;;;;;4180211;28;20041;-78
2021/01/08 00:06:36;;;;;;;9.43;5.38;;;2.60;99.90;;;;;;4162239;28;20022;-78
2021/01/08 00:08:37;;;;;;;7.88;5.00;;;2.50;99.90;;;;;;4180432;28;20040;-78
2021/01/08 00:10:38;;;;;;;6.30;4.75;;;2.50;99.90;;;;;;4180377;28;20392;-78
2021/01/08 00:12:38;;;;;;;7.47;4.43;;;2.50;99.90;;;;;;4162436;28;20532;-77
2021/01/08 00:14:39;;;;;;;14.57;8.90;;;2.60;99.90;;;;;;4162705;28;20042;-78
2021/01/08 00:16:39;;;;;;;8.95;4.75;;;2.60;99.90;;;;;;4181215;28;20025;-78
2021/01/08 00:18:40;;;;;;;7.35;5.60;;;2.70;99.90;;;;;;4181594;28;20033;-77
2021/01/08 00:20:41;;;;;;;8.02;5.38;;;2.60;99.90;;;;;;4181590;28;20078;-78
2021/01/08 00:22:41;;;;;;;7.88;5.22;;;2.50;99.90;;;;;;4180376;28;20076;-77
2021/01/08 00:24:42;;;;;;;11.15;5.05;;;2.50;99.90;;;;;;4179970;28;20392;-78
2021/01/08 00:26:42;;;;;;;6.30;4.82;;;2.50;99.90;;;;;;4180301;28;20028;-78
2021/01/08 00:28:44;;;;;;;7.53;5.18;;;2.50;99.90;;;;;;4180220;28;20022;-78
2021/01/08 00:30:44;;;;;;;8.07;5.10;;;2.60;99.90;;;;;;4173991;28;20493;-77
2021/01/08 00:32:45;;;;;;;8.80;5.07;;;2.50;99.90;;;;;;4162152;28;20036;-77
2021/01/08 00:34:47;;;;;;;7.75;4.88;;;2.50;99.90;;;;;;4179741;28;20071;-78
2021/01/08 00:36:56;;;;;;;9.55;4.72;;;2.60;99.90;;;;;;4180476;28;20045;-77
2021/01/08 00:38:59;;;;;;;8.38;4.88;;;2.60;99.90;;;;;;4173131;28;20036;-77
2021/01/08 00:41:00;;;;;;;8.20;4.82;;;2.60;99.90;;;;;;4178891;28;20036;-77
2021/01/08 00:43:01;;;;;;;6.90;4.75;;;2.60;99.90;;;;;;4166062;28;20329;-77
2021/01/08 00:45:02;;;;;;;11.65;5.60;;;2.60;99.90;;;;;;4169342;28;20065;-76
2021/01/08 00:47:06;;;;;;;8.25;4.43;;;2.60;99.90;;;;;;4180242;28;20033;-77
2021/01/08 00:49:07;;;;;;;6.80;4.93;;;2.60;99.90;;;;;;4180666;28;20543;-77
2021/01/08 00:51:08;;;;;;;9.48;5.53;;;2.60;99.90;;;;;;4163672;28;20036;-77
2021/01/08 00:53:08;;;;;;;9.30;5.70;;;2.60;99.90;;;;;;4161978;28;20432;-78
2021/01/08 00:55:09;;;;;;;7.95;5.18;;;2.60;99.90;;;;;;4179721;28;20033;-78
2021/01/08 00:57:10;;;;;;;9.30;5.78;;;2.60;99.90;;;;;;4157350;28;20030;-75
2021/01/08 00:59:10;;;;;;;12.43;6.28;;;2.60;99.90;;;;;;4172459;28;20102;-78
2021/01/08 01:01:12;;;;;;;10.75;5.97;;;2.60;99.90;;;;;;4179311;28;20021;-79
2021/01/08 01:03:13;;;;;;;7.82;5.40;;;2.50;99.90;;;;;;4179291;28;20112;-78
2021/01/08 01:05:13;;;;;;;10.27;6.38;;;2.50;99.90;;;;;;4161380;28;20039;-78
2021/01/08 01:07:14;;;;;;;9.10;6.07;;;2.50;99.90;;;;;;4161589;28;20496;-78
2021/01/08 01:09:14;;;;;;;11.05;6.30;;;2.50;99.90;;;;;;4161611;28;20058;-78
2021/01/08 01:11:16;;;;;;;7.05;5.70;;;2.60;99.90;;;;;;4179402;28;20618;-78
2021/01/08 01:13:17;;;;;;;10.25;6.65;;;2.50;99.90;;;;;;4178636;28;20067;-79
2021/01/08 01:15:17;;;;;;;9.63;6.20;;;2.50;99.90;;;;;;4179238;28;20423;-78
2021/01/08 01:17:18;;;;;;;9.32;5.82;;;2.40;99.90;;;;;;4179453;28;20033;-78
2021/01/08 01:19:19;;;;;;;11.13;6.38;;;2.50;99.90;;;;;;4179498;28;20025;-78
2021/01/08 01:21:19;;;;;;;9.90;5.65;;;2.40;99.90;;;;;;4180406;28;20021;-78
2021/01/08 01:23:20;;;;;;;11.70;6.85;;;2.40;99.90;;;;;;4163423;28;20028;-78
2021/01/08 01:25:20;;;;;;;9.85;6.32;;;2.40;99.90;;;;;;4180634;28;20049;-78
2021/01/08 01:27:21;;;;;;;8.45;5.40;;;2.40;99.90;;;;;;4180858;28;20123;-77
2021/01/08 01:29:23;;;;;;;8.93;5.20;;;2.50;99.90;;;;;;4180383;28;20421;-78
2021/01/08 01:31:23;;;;;;;11.75;6.20;;;2.50;99.90;;;;;;4178005;28;20044;-77
2021/01/08 01:33:24;;;;;;;10.98;5.00;;;2.50;99.90;;;;;;4161119;28;20048;-78
2021/01/08 01:35:25;;;;;;;8.50;5.10;;;2.60;99.90;;;;;;4178726;28;20040;-78
2021/01/08 01:37:29;;;;;;;8.00;4.90;;;2.60;99.90;;;;;;4178940;28;20064;-78
2021/01/08 01:39:29;;;;;;;8.20;5.03;;;2.60;99.90;;;;;;4161515;28;20042;-79
2021/01/08 01:41:30;;;;;;;9.02;5.40;;;2.60;99.90;;;;;;4160158;28;20021;-78
2021/01/08 01:43:32;;;;;;;6.53;5.05;;;2.60;99.90;;;;;;4177892;28;20056;-78
2021/01/08 01:45:33;;;;;;;8.48;5.47;;;2.60;99.90;;;;;;4161368;28;20176;-78
2021/01/08 01:47:34;;;;;;;9.00;4.75;;;2.60;99.90;;;;;;4161573;28;20061;-78
2021/01/08 01:49:34;;;;;;;8.95;5.70;;;2.50;99.90;;;;;;4179345;28;20049;-77
2021/01/08 01:51:35;;;;;;;7.72;4.68;;;2.50;99.90;;;;;;4157946;28;20104;-78
2021/01/08 01:53:35;;;;;;;8.13;4.85;;;2.50;99.90;;;;;;4146787;28;20456;-77
2021/01/08 01:55:36;;;;;;;8.27;5.03;;;2.50;99.90;;;;;;4146186;28;20108;-78
2021/01/08 01:57:37;;;;;;;8.45;5.22;;;2.60;99.90;;;;;;4145496;28;20057;-78
2021/01/08 01:59:37;;;;;;;7.85;5.20;;;2.50;99.90;;;;;;4145943;28;20034;-78
2021/01/08 02:01:38;;;;;;;9.30;4.90;;;2.50;99.90;;;;;;4145138;28;20026;-78
2021/01/08 02:03:49;;;;;;;8.38;4.93;;;2.40;99.90;;;;;;4144315;28;20400;-77
2021/01/08 02:05:55;;;;;;;8.40;4.43;;;2.60;99.90;;;;;;4145996;28;20076;-80
2021/01/08 02:07:59;;;;;;;9.93;5.03;;;2.60;99.90;;;;;;4145716;28;20105;-77
2021/01/08 02:10:05;;;;;;;7.97;5.18;;;2.50;99.90;;;;;;4145554;28;20045;-78
2021/01/08 02:12:06;;;;;;;9.43;5.10;;;2.40;99.90;;;;;;4145337;28;20022;-77
2021/01/08 02:14:14;;;;;;;9.95;4.57;;;2.40;99.90;;;;;;4145645;28;20049;-77
2021/01/08 02:16:17;;;;;;;8.40;4.55;;;2.50;99.90;;;;;;4145746;28;20037;-77
2021/01/08 02:18:19;;;;;;;8.15;5.20;;;2.50;99.90;;;;;;4145543;28;20124;-78
2021/01/08 02:20:21;;;;;;;7.60;4.45;;;2.60;99.90;;;;;;4145489;28;20088;-77
2021/01/08 02:22:39;;;;;;;9.68;4.57;;;2.60;99.90;;;;;;4144064;28;20453;-78
2021/01/08 02:25:03;;;;;;;7.97;5.25;;;2.60;99.90;;;;;;4144975;28;20045;-78
2021/01/08 02:27:04;;;;;;;6.80;4.35;;;2.60;99.90;;;;;;4137508;28;20030;-78
2021/01/08 02:29:05;;;;;;;6.82;4.80;;;2.60;99.90;;;;;;4145866;28;20370;-78
2021/01/08 02:31:05;;;;;;;9.13;4.55;;;2.50;99.90;;;;;;4145677;28;20080;-77
2021/01/08 02:33:06;;;;;;;7.80;5.15;;;2.50;99.90;;;;;;4145649;28;20072;-78
2021/01/08 02:35:07;;;;;;;7.88;4.95;;;2.40;99.90;;;;;;4137273;28;20124;-78
2021/01/08 02:37:08;;;;;;;8.85;5.10;;;2.40;99.90;;;;;;4145528;28;20030;-78
2021/01/08 02:39:10;;;;;;;9.65;5.15;;;2.50;99.90;;;;;;4142244;28;20592;-78
2021/01/08 02:41:12;;;;;;;7.27;4.83;;;2.50;99.90;;;;;;4131857;28;20030;-78
2021/01/08 02:43:15;;;;;;;6.97;5.03;;;2.40;99.90;;;;;;4147145;28;20026;-78
2021/01/08 02:45:16;;;;;;;6.72;4.95;;;2.40;99.90;;;;;;4138798;28;20065;-78
2021/01/08 02:47:19;;;;;;;8.50;5.35;;;2.30;99.90;;;;;;4138948;28;20023;-78
2021/01/08 02:49:20;;;;;;;8.35;5.38;;;2.30;99.90;;;;;;4146830;28;20045;-78
2021/01/08 02:51:20;;;;;;;10.23;5.07;;;2.20;99.90;;;;;;4149528;28;22266;-77
2021/01/08 02:53:23;;;;;;;11.40;5.63;;;2.20;99.90;;;;;;4179734;28;20464;-78
2021/01/08 02:55:30;;;;;;;6.45;4.28;;;2.20;99.90;;;;;;4161740;28;20033;-78
2021/01/08 02:57:31;;;;;;;8.85;5.25;;;2.30;99.90;;;;;;4179374;28;20029;-78
2021/01/08 02:59:33;;;;;;;7.00;4.95;;;2.30;99.90;;;;;;4161481;28;20091;-78
2021/01/08 03:01:35;;;;;;;6.50;4.63;;;2.50;99.90;;;;;;4179601;28;20498;-78
2021/01/08 03:03:36;;;;;;;7.75;4.80;;;2.50;99.90;;;;;;4179641;28;20434;-78
2021/01/08 03:05:37;;;;;;;5.68;4.03;;;2.40;99.90;;;;;;4179365;28;20120;-78
2021/01/08 03:07:37;;;;;;;6.97;4.20;;;2.40;99.90;;;;;;4175502;28;20037;-78
2021/01/08 03:09:38;;;;;;;7.15;4.10;;;2.40;99.90;;;;;;4161579;28;20509;-78
2021/01/08 03:11:39;;;;;;;8.20;4.82;;;2.40;99.90;;;;;;4179150;28;20480;-79
2021/01/08 03:13:40;;;;;;;10.63;4.90;;;2.40;99.90;;;;;;4179409;28;20116;-78
2021/01/08 03:15:41;;;;;;;5.75;4.10;;;2.40;99.90;;;;;;4179321;28;20031;-78
2021/01/08 03:17:42;;;;;;;7.25;3.95;;;2.40;99.90;;;;;;4179382;28;20485;-79
2021/01/08 03:19:42;;;;;;;7.53;5.10;;;2.40;99.90;;;;;;4179345;28;20044;-79
2021/01/08 03:21:43;;;;;;;7.60;4.80;;;2.40;99.90;;;;;;4179263;28;20372;-79
2021/01/08 03:23:44;;;;;;;9.38;5.18;;;2.40;99.90;;;;;;4161793;28;20087;-79
2021/01/08 03:25:45;;;;;;;9.38;4.70;;;2.30;99.90;;;;;;4177773;28;20021;-78
2021/01/08 03:27:45;;;;;;;8.18;5.25;;;2.30;99.90;;;;;;4179248;28;20061;-78
2021/01/08 03:29:46;;;;;;;7.40;4.78;;;2.30;99.90;;;;;;4161230;28;20026;-79
2021/01/08 03:31:47;;;;;;;7.78;4.90;;;2.30;99.90;;;;;;4161622;28;20380;-78
2021/01/08 03:33:47;;;;;;;8.48;4.90;;;2.30;99.90;;;;;;4179357;28;20469;-79
2021/01/08 03:35:49;;;;;;;9.13;5.10;;;2.30;99.90;;;;;;4180148;28;21089;-79
2021/01/08 03:37:50;;;;;;;9.02;5.22;;;2.40;99.90;;;;;;4182441;28;20029;-80
2021/01/08 03:39:50;;;;;;;10.77;5.47;;;2.30;99.90;;;;;;4182781;28;20039;-79
2021/01/08 03:41:51;;;;;;;9.82;5.28;;;2.20;99.90;;;;;;4182197;28;20456;-79
2021/01/08 03:43:51;;;;;;;8.32;4.78;;;2.30;99.90;;;;;;4164641;28;20095;-78
2021/01/08 03:45:52;;;;;;;11.98;5.43;;;2.30;99.90;;;;;;4164449;28;20037;-78
2021/01/08 03:47:53;;;;;;;11.65;6.38;;;2.30;99.90;;;;;;4182205;28;20053;-78
2021/01/08 03:49:54;;;;;;;10.57;5.75;;;2.30;99.90;;;;;;4182407;28;20033;-78
2021/01/08 03:51:54;;;;;;;12.57;5.88;;;2.40;99.90;;;;;;4181712;28;20041;-78
2021/01/08 03:53:54;;;;;;;9.15;5.68;;;2.40;99.90;;;;;;4182104;28;20021;-77
2021/01/08 03:55:55;;;;;;;9.57;5.72;;;2.40;99.90;;;;;;4182389;28;20021;-78
2021/01/08 03:57:56;;;;;;;11.32;6.90;;;2.40;99.90;;;;;;4182446;28;20021;-78
2021/01/08 03:59:57;;;;;;;9.38;5.97;;;2.40;99.90;;;;;;4181993;28;20516;-78
2021/01/08 04:01:57;;;;;;;10.82;6.40;;;2.40;99.90;;;;;;4182227;28;20028;-77
2021/01/08 04:03:58;;;;;;;10.23;6.22;;;2.40;99.90;;;;;;4181728;28;20041;-77
2021/01/08 04:05:58;;;;;;;15.13;7.35;;;2.40;99.90;;;;;;4182113;28;20459;-77
2021/01/08 04:07:59;;;;;;;12.85;7.28;;;2.40;99.90;;;;;;4182156;28;20461;-78
2021/01/08 04:10:00;;;;;;;15.38;7.57;;;2.30;99.90;;;;;;4181896;28;20021;-78
2021/01/08 04:12:00;;;;;;;19.35;8.80;;;2.40;99.90;;;;;;4182000;28;20059;-78
2021/01/08 04:14:01;;;;;;;18.15;8.60;;;2.40;99.90;;;;;;4181816;28;20056;-77
2021/01/08 04:16:03;;;;;;;18.80;9.27;;;2.40;99.90;;;;;;4164041;28;20025;-77
2021/01/08 04:18:03;;;;;;;19.75;9.32;;;2.40;99.90;;;;;;4181882;28;20530;-77
2021/01/08 04:20:05;;;;;;;27.30;9.90;;;2.50;99.90;;;;;;4182085;28;20089;-77
2021/01/08 04:22:06;;;;;;;23.30;10.23;;;2.50;99.90;;;;;;4181817;28;20089;-78
2021/01/08 04:24:07;;;;;;;20.48;10.80;;;2.40;99.90;;;;;;4181537;28;20029;-78
2021/01/08 04:26:07;;;;;;;21.10;10.48;;;2.50;99.90;;;;;;4163672;28;20392;-78
2021/01/08 04:28:08;;;;;;;22.52;10.75;;;2.60;99.90;;;;;;4181693;28;20017;-78
2021/01/08 04:30:09;;;;;;;21.35;9.75;;;2.60;99.90;;;;;;4181455;28;20086;-77
2021/01/08 04:32:09;;;;;;;22.75;10.20;;;2.50;99.90;;;;;;4163831;28;20026;-78
2021/01/08 04:34:10;;;;;;;20.63;10.70;;;2.60;99.90;;;;;;4177161;28;20365;-78
2021/01/08 04:36:11;;;;;;;17.40;10.30;;;2.60;99.90;;;;;;4181718;28;20021;-79
2021/01/08 04:38:11;;;;;;;16.63;8.73;;;2.70;99.90;;;;;;4181090;28;20029;-78
2021/01/08 04:40:13;;;;;;;15.32;8.52;;;2.60;99.90;;;;;;4181357;28;20033;-78
2021/01/08 04:42:15;;;;;;;18.58;9.57;;;2.60;99.90;;;;;;4181551;28;20025;-79
2021/01/08 04:44:16;;;;;;;16.80;9.45;;;2.60;99.90;;;;;;4181205;28;20986;-78
2021/01/08 04:46:28;;;;;;;18.83;9.43;;;2.60;99.90;;;;;;4180623;28;20079;-79
2021/01/08 04:48:31;;;;;;;17.95;9.60;;;2.50;99.90;;;;;;4180163;28;20029;-79
2021/01/08 04:50:32;;;;;;;14.20;8.15;;;2.50;99.90;;;;;;4179715;28;20087;-78
2021/01/08 04:52:33;;;;;;;15.93;8.23;;;2.50;99.90;;;;;;4179707;28;20045;-78
2021/01/08 04:54:34;;;;;;;13.63;7.68;;;2.50;99.90;;;;;;4179928;28;20040;-78
2021/01/08 04:56:43;;;;;;;13.68;8.32;;;2.50;99.90;;;;;;4162316;28;20026;-79
2021/01/08 04:58:45;;;;;;;16.58;8.48;;;2.50;99.90;;;;;;4161980;28;20536;-79
2021/01/08 05:00:47;;;;;;;14.52;8.90;;;2.50;99.90;;;;;;4179843;28;20740;-79
2021/01/08 05:02:51;;;;;;;17.05;9.00;;;2.60;99.90;;;;;;4161956;28;20460;-79
2021/01/08 05:04:52;;;;;;;17.95;10.60;;;2.50;99.90;;;;;;4179667;28;20124;-79
2021/01/08 05:06:52;;;;;;;18.92;10.27;;;2.50;99.90;;;;;;4179246;28;20062;-79
2021/01/08 05:08:53;;;;;;;21.02;11.57;;;2.50;99.90;;;;;;4179487;28;20036;-79
2021/01/08 05:10:56;;;;;;;16.00;9.18;;;2.50;99.90;;;;;;4179552;28;20097;-79
2021/01/08 05:12:57;;;;;;;17.48;9.32;;;2.60;99.90;;;;;;4180697;28;20113;-79
2021/01/08 05:14:58;;;;;;;20.42;9.43;;;2.50;99.90;;;;;;4181133;28;20044;-79
2021/01/08 05:16:59;;;;;;;17.23;8.77;;;2.50;99.90;;;;;;4163368;28;20053;-79
2021/01/08 05:19:02;;;;;;;15.82;8.02;;;2.60;99.90;;;;;;4162961;28;20029;-78
2021/01/08 05:21:03;;;;;;;18.13;8.55;;;2.50;99.90;;;;;;4163025;28;20049;-78
2021/01/08 05:23:04;;;;;;;19.48;10.68;;;2.50;99.90;;;;;;4180805;28;20025;-78
2021/01/08 05:25:07;;;;;;;19.10;10.27;;;2.50;99.90;;;;;;4180795;28;20396;-78
2021/01/08 05:27:11;;;;;;;22.48;10.20;;;2.50;99.90;;;;;;4180956;28;20029;-78
2021/01/08 05:29:12;;;;;;;19.63;10.02;;;2.60;99.90;;;;;;4180633;28;20160;-78
2021/01/08 05:31:13;;;;;;;16.23;8.93;;;2.60;99.90;;;;;;4180435;28;20037;-77
2021/01/08 05:33:15;;;;;;;18.55;10.02;;;2.50;99.90;;;;;;4159996;28;20113;-78
2021/01/08 05:35:16;;;;;;;21.50;9.93;;;2.60;99.90;;;;;;4170466;28;20036;-78
2021/01/08 05:37:17;;;;;;;19.05;9.82;;;2.60;99.90;;;;;;4178815;28;20029;-78
2021/01/08 05:39:20;;;;;;;24.25;11.52;;;2.60;99.90;;;;;;4178908;28;20469;-78
2021/01/08 05:41:24;;;;;;;17.45;9.27;;;2.60;99.90;;;;;;4161085;28;20515;-78
2021/01/08 05:43:25;;;;;;;19.98;8.65;;;2.60;99.90;;;;;;4178353;28;20112;-78
2021/01/08 05:45:27;;;;;;;17.35;8.73;;;2.60;99.90;;;;;;4156548;28;20095;-78
2021/01/08 05:47:28;;;;;;;15.17;8.53;;;2.60;99.90;;;;;;4145937;28;20524;-78
2021/01/08 05:49:32;;;;;;;15.60;8.82;;;2.70;99.90;;;;;;4170441;28;20303;-78
2021/01/08 05:51:37;;;;;;;21.63;9.15;;;2.70;99.90;;;;;;4177848;28;20087;-78
2021/01/08 05:53:38;;;;;;;18.98;10.63;;;2.70;99.90;;;;;;4177003;28;20814;-78
2021/01/08 05:55:41;;;;;;;16.88;9.82;;;2.70;99.90;;;;;;4179831;28;20029;-78
2021/01/08 05:57:41;;;;;;;18.85;10.23;;;2.70;99.90;;;;;;4160892;28;20029;-78
2021/01/08 05:59:44;;;;;;;20.52;11.27;;;2.60;99.90;;;;;;4178624;28;20102;-78
2021/01/08 06:01:46;;;;;;;23.50;11.15;;;2.50;99.90;;;;;;4161433;28;20044;-78
2021/01/08 06:03:46;;;;;;;22.13;10.75;;;2.50;99.90;;;;;;4179369;28;20033;-78
2021/01/08 06:05:52;;;;;;;22.52;10.65;;;2.50;99.90;;;;;;4178197;28;20036;-78
2021/01/08 06:07:59;;;;;;;19.45;10.63;;;2.50;99.90;;;;;;4179567;28;20024;-78
2021/01/08 06:10:03;;;;;;;18.35;10.95;;;2.50;99.90;;;;;;4161935;28;20040;-78
2021/01/08 06:12:04;;;;;;;19.75;10.35;;;2.50;99.90;;;;;;4163046;28;20153;-78
2021/01/08 06:14:06;;;;;;;21.05;10.60;;;2.60;99.90;;;;;;4179153;28;20021;-78
2021/01/08 06:16:08;;;;;;;23.25;10.60;;;2.50;99.90;;;;;;4162251;28;20512;-78
2021/01/08 06:18:09;;;;;;;21.40;10.20;;;2.60;99.90;;;;;;4179718;28;20052;-78
2021/01/08 06:20:12;;;;;;;20.77;10.38;;;2.60;99.90;;;;;;4178441;28;20033;-78
2021/01/08 06:22:13;;;;;;;22.43;10.03;;;2.60;99.90;;;;;;4159343;28;20263;-78
2021/01/08 06:24:26;;;;;;;20.05;9.68;;;2.60;99.90;;;;;;4178128;28;20534;-79
2021/01/08 06:26:30;;;;;;;16.92;9.57;;;2.60;99.90;;;;;;4178565;28;20523;-79
2021/01/08 06:28:39;;;;;;;24.58;9.27;;;2.60;99.90;;;;;;4178475;28;20087;-78
2021/01/08 06:30:42;;;;;;;19.73;8.93;;;2.60;99.90;;;;;;4178123;28;20361;-79
2021/01/08 06:32:48;;;;;;;16.08;9.07;;;2.50;99.90;;;;;;4175953;28;20059;-78
2021/01/08 06:34:48;;;;;;;15.00;9.02;;;2.60;99.90;;;;;;4178638;28;20032;-78
2021/01/08 06:37:06;;;;;;;19.27;8.73;;;2.60;99.90;;;;;;4165467;28;20034;-78
2021/01/08 06:39:06;;;;;;;17.65;8.65;;;2.70;99.90;;;;;;4176505;28;20040;-78
2021/01/08 06:41:13;;;;;;;14.18;7.90;;;2.60;99.90;;;;;;4167970;28;20114;-77
2021/01/08 06:43:20;;;;;;;15.98;8.60;;;2.50;99.90;;;;;;4171565;28;20044;-78
2021/01/08 06:45:21;;;;;;;15.20;8.50;;;2.50;99.90;;;;;;4165371;28;20086;-78
2021/01/08 06:47:22;;;;;;;18.88;8.82;;;2.50;99.90;;;;;;4166636;28;20493;-79
2021/01/08 06:49:23;;;;;;;15.23;8.00;;;2.50;99.90;;;;;;4165675;28;20050;-78
2021/01/08 06:51:32;;;;;;;14.02;8.00;;;2.40;99.90;;;;;;4164995;28;20042;-78
2021/01/08 06:53:36;;;;;;;18.08;9.30;;;2.50;99.90;;;;;;4153444;28;20053;-78
2021/01/08 06:55:44;;;;;;;21.27;9.10;;;2.40;99.90;;;;;;4165729;28;20394;-78
2021/01/08 06:57:53;;;;;;;15.98;8.70;;;2.40;99.90;;;;;;4167946;28;20476;-78
2021/01/08 06:59:56;;;;;;;20.30;10.80;;;2.40;99.90;;;;;;4169275;28;20067;-78
2021/01/08 07:02:09;;;;;;;21.60;11.55;;;2.30;99.90;;;;;;4170039;28;20040;-78
2021/01/08 07:04:11;;;;;;;23.13;11.75;;;2.20;99.90;;;;;;4148827;28;20065;-78
2021/01/08 07:06:11;;;;;;;25.27;11.52;;;2.20;99.90;;;;;;4163743;28;20022;-78
2021/01/08 07:08:12;;;;;;;26.83;12.98;;;2.20;99.90;;;;;;4146029;28;20548;-78
2021/01/08 07:10:17;;;;;;;30.00;13.45;;;2.20;99.90;;;;;;4166986;28;20055;-78
2021/01/08 07:12:22;;;;;;;27.65;13.25;;;2.20;99.90;;;;;;4168158;28;20596;-78
2021/01/08 07:14:24;;;;;;;27.73;14.20;;;2.20;99.90;;;;;;4170575;28;20030;-78
2021/01/08 07:16:24;;;;;;;23.88;12.23;;;2.20;99.90;;;;;;4155177;28;20021;-78
2021/01/08 07:18:28;;;;;;;30.95;14.32;;;2.20;99.90;;;;;;4172442;28;20061;-78
2021/01/08 07:20:29;;;;;;;24.20;13.77;;;2.10;99.90;;;;;;4182568;28;20025;-79
2021/01/08 07:22:41;;;;;;;29.08;13.43;;;2.00;99.90;;;;;;4184936;28;20033;-79
2021/01/08 07:24:42;;;;;;;28.38;13.40;;;2.00;99.90;;;;;;4182116;28;20040;-79
2021/01/08 07:26:42;;;;;;;31.25;13.63;;;2.00;99.90;;;;;;4165844;28;20041;-78
2021/01/08 07:28:50;;;;;;;30.55;15.13;;;2.00;99.90;;;;;;4165833;28;20136;-78
2021/01/08 07:31:09;;;;;;;26.30;13.30;;;2.00;99.90;;;;;;4184054;28;20040;-79
2021/01/08 07:33:16;;;;;;;34.08;13.50;;;1.90;99.90;;;;;;4183683;28;20028;-78
2021/01/08 07:35:24;;;;;;;30.10;14.27;;;2.00;99.90;;;;;;4184439;28;20124;-79
2021/01/08 07:38:02;;;;;;;25.50;12.07;;;2.00;99.90;;;;;;4183962;28;20041;-78
2021/01/08 07:40:05;;;;;;;24.95;12.68;;;2.10;99.90;;;;;;4181039;28;20048;-78
2021/01/08 07:42:32;;;;;;;26.40;12.48;;;2.10;99.90;;;;;;4183405;28;20132;-78
2021/01/08 07:44:33;;;;;;;27.92;11.52;;;2.00;99.90;;;;;;4165705;28;20041;-78
2021/01/08 07:46:34;;;;;;;23.85;12.07;;;2.10;99.90;;;;;;4165578;28;20818;-78
2021/01/08 07:48:39;;;;;;;33.30;13.38;;;2.10;99.90;;;;;;4164936;28;20037;-78
2021/01/08 07:50:53;;;;;;;28.52;13.88;;;2.10;99.90;;;;;;4181380;28;20052;-78
2021/01/08 07:52:54;;;;;;;29.35;12.50;;;2.10;99.90;;;;;;4151808;28;20104;-78
2021/01/08 07:54:54;;;;;;;29.70;12.57;;;2.10;99.90;;;;;;4150721;28;20565;-78
2021/01/08 07:57:06;;;;;;;25.65;12.10;;;2.10;99.90;;;;;;4149769;28;20412;-78
2021/01/08 07:59:07;;;;;;;31.35;13.07;;;2.10;99.90;;;;;;4149414;28;20050;-77
2021/01/08 08:01:13;;;;;;;29.38;12.93;;;2.10;99.90;;;;;;4150708;28;20568;-78
2021/01/08 08:03:14;;;;;;;29.75;14.23;;;2.00;99.90;;;;;;4149840;28;20172;-77
2021/01/08 08:05:18;;;;;;;26.63;12.48;;;2.00;99.90;;;;;;4151183;28;20045;-78
2021/01/08 08:07:22;;;;;;;30.00;12.23;;;2.00;99.90;;;;;;4151130;28;20129;-77
2021/01/08 08:09:23;;;;;;;28.77;12.02;;;2.00;99.90;;;;;;4148466;28;20041;-78
2021/01/08 08:11:27;;;;;;;28.45;13.52;;;2.00;99.90;;;;;;4150898;28;20026;-76
2021/01/08 08:13:30;;;;;;;30.40;11.85;;;2.00;99.90;;;;;;4133069;28;20046;-77
2021/01/08 08:15:31;;;;;;;29.75;13.27;;;2.00;99.90;;;;;;4147134;28;20038;-77
2021/01/08 08:17:32;;;;;;;31.20;12.77;;;1.90;99.90;;;;;;4145622;28;20030;-77
2021/01/08 08:19:33;;;;;;;29.23;13.60;;;1.90;99.90;;;;;;4141743;28;20038;-77
2021/01/08 08:21:35;;;;;;;28.15;13.05;;;1.90;99.90;;;;;;4140859;28;20034;-77
2021/01/08 08:23:37;;;;;;;28.35;13.13;;;1.90;99.90;;;;;;4137456;28;20137;-77
2021/01/08 08:25:37;;;;;;;25.58;12.65;;;2.00;99.90;;;;;;4129505;28;20038;-77
2021/01/08 08:27:38;;;;;;;29.15;13.60;;;2.00;99.90;;;;;;4145513;28;20636;-78
2021/01/08 08:29:39;;;;;;;35.85;13.93;;;2.00;99.90;;;;;;4146880;28;20370;-77
2021/01/08 08:31:46;;;;;;;33.55;13.60;;;2.00;99.90;;;;;;4146224;28;20154;-78
2021/01/08 08:33:49;;;;;;;32.38;13.45;;;1.90;99.90;;;;;;4145139;28;20044;-78
2021/01/08 08:35:50;;;;;;;32.63;12.98;;;1.90;99.90;;;;;;4142054;28;20034;-78
2021/01/08 08:37:53;;;;;;;27.65;14.48;;;2.00;99.90;;;;;;4144814;28;20045;-78
2021/01/08 08:40:00;;;;;;;27.73;14.45;;;2.00;99.90;;;;;;4141003;28;20061;-78
2021/01/08 08:42:00;;;;;;;28.95;13.55;;;2.00;99.90;;;;;;4144791;28;20409;-78
2021/01/08 08:44:10;;;;;;;32.92;14.25;;;2.00;99.90;;;;;;4145405;28;20030;-77
2021/01/08 08:46:10;;;;;;;35.53;14.93;;;2.00;99.90;;;;;;4146563;28;20025;-78
2021/01/08 08:48:11;;;;;;;32.28;15.70;;;2.10;99.90;;;;;;4146280;28;20022;-78
2021/01/08 08:50:13;;;;;;;32.38;15.10;;;2.20;99.90;;;;;;4146068;28;20080;-78
2021/01/08 08:52:26;;;;;;;32.20;15.80;;;2.30;99.90;;;;;;4153232;28;20044;-77
2021/01/08 08:54:27;;;;;;;33.08;13.88;;;2.40;99.90;;;;;;4172427;28;20032;-78
2021/01/08 08:56:28;;;;;;;28.88;12.77;;;2.50;99.90;;;;;;4160394;28;20125;-78
2021/01/08 08:58:29;;;;;;;27.77;13.25;;;2.60;99.90;;;;;;4174788;28;20556;-78
2021/01/08 09:00:30;;;;;;;26.27;13.15;;;2.60;99.90;;;;;;4158904;28;20524;-78
2021/01/08 09:02:31;;;;;;;28.73;12.63;;;2.70;99.90;;;;;;4176974;28;20066;-78
2021/01/08 09:04:32;;;;;;;25.55;11.45;;;2.70;99.90;;;;;;4159647;28;20104;-78
2021/01/08 09:06:39;;;;;;;31.83;11.80;;;2.80;99.90;;;;;;4177547;28;20033;-78
2021/01/08 09:08:43;;;;;;;20.52;10.35;;;2.80;99.90;;;;;;4178233;28;20029;-77
2021/01/08 09:11:29;;;;;;;24.50;12.13;;;2.80;99.90;;;;;;4178207;28;20124;-78
2021/01/08 09:13:52;;;;;;;25.25;10.90;;;2.90;99.90;;;;;;4121137;28;20086;-78
2021/01/08 09:16:19;;;;;;;24.10;10.90;;;3.00;99.90;;;;;;4144628;28;20161;-78
2021/01/08 09:18:31;;;;;;;30.20;11.82;;;3.00;99.90;;;;;;4172648;28;20120;-78
2021/01/08 09:20:33;;;;;;;24.65;11.02;;;3.00;99.90;;;;;;4178584;28;20040;-77
2021/01/08 09:22:37;;;;;;;26.83;11.50;;;3.00;99.90;;;;;;4180372;28;20054;-78
2021/01/08 09:24:40;;;;;;;34.03;12.77;;;3.10;99.90;;;;;;4173473;28;20135;-78
2021/01/08 09:26:44;;;;;;;26.27;11.35;;;3.10;99.90;;;;;;4164968;28;20111;-78
2021/01/08 09:28:44;;;;;;;;;;;3.10;99.90;;;;;;4178633;28;20037;-78
2021/01/08 09:30:55;;;;;;;24.38;10.35;;;3.20;99.90;;;;;;4160517;28;19959;-78
2021/01/08 09:32:55;;;;;;;27.25;11.02;;;3.30;99.90;;;;;;4175850;28;20438;-79
2021/01/08 09:34:59;;;;;;;28.42;12.20;;;3.30;99.90;;;;;;4178655;28;20029;-78
2021/01/08 09:37:13;;;;;;;24.30;11.05;;;3.20;99.90;;;;;;4177863;28;20033;-78
2021/01/08 09:39:14;;;;;;;;;;;3.20;99.90;;;;;;4157735;28;20083;-78
2021/01/08 09:41:15;;;;;;;23.65;10.85;;;3.20;99.90;;;;;;4143354;28;20024;-79
2021/01/08 09:43:16;;;;;;;25.58;10.30;;;3.20;99.90;;;;;;4160369;28;20071;-80
2021/01/08 09:45:18;;;;;;;23.38;10.88;;;3.20;99.90;;;;;;4179476;28;20055;-79
2021/01/08 09:47:19;;;;;;;23.38;11.88;;;3.20;99.90;;;;;;4178858;28;20052;-78
2021/01/08 09:49:20;;;;;;;24.73;10.95;;;3.10;99.90;;;;;;4179027;28;20418;-77
2021/01/08 09:51:20;;;;;;;22.02;11.27;;;3.20;99.90;;;;;;4161901;28;20405;-78
2021/01/08 09:53:21;;;;;;;22.15;12.23;;;3.10;99.90;;;;;;4161669;28;20187;-78
2021/01/08 09:55:30;;;;;;;21.60;11.40;;;3.10;99.90;;;;;;4163465;28;20075;-77
2021/01/08 09:57:36;;;;;;;20.35;10.02;;;3.10;99.90;;;;;;4161477;28;20103;-77
2021/01/08 09:59:37;;;;;;;21.02;10.40;;;3.10;99.90;;;;;;4161457;28;20060;-76
2021/01/08 10:01:58;;;;;;;19.27;9.90;;;3.10;99.90;;;;;;4159091;28;20052;-78
2021/01/08 10:03:59;;;;;;;17.42;9.25;;;3.20;99.90;;;;;;4151345;28;20084;-78
2021/01/08 10:06:09;;;;;;;20.42;10.05;;;3.20;99.90;;;;;;4140136;28;20108;-79
2021/01/08 10:08:20;;;;;;;21.05;10.45;;;3.20;99.90;;;;;;4156181;28;20614;-78
2021/01/08 10:10:26;;;;;;;22.63;12.02;;;3.30;99.90;;;;;;4161826;28;20125;-78
2021/01/08 10:12:27;;;;;;;22.85;12.07;;;3.30;99.90;;;;;;4160763;28;20433;-78
2021/01/08 10:14:32;;;;;;;22.10;11.98;;;3.30;99.90;;;;;;4161044;28;20044;-78
2021/01/08 10:16:38;;;;;;;24.65;11.77;;;3.20;99.90;;;;;;4160581;28;20030;-79
2021/01/08 10:18:39;;;;;;;17.27;9.73;;;3.30;99.90;;;;;;4161409;28;20033;-78
2021/01/08 10:20:52;;;;;;;18.85;10.68;;;3.30;99.90;;;;;;4160898;28;20541;-79
2021/01/08 10:22:53;;;;;;;17.42;10.88;;;3.30;99.90;;;;;;4160628;28;20029;-79
2021/01/08 10:24:54;;;;;;;16.48;10.60;;;3.30;99.90;;;;;;4160822;28;20045;-79
2021/01/08 10:26:55;;;;;;;16.52;10.25;;;3.20;99.90;;;;;;4159715;28;20025;-79
2021/01/08 10:28:56;;;;;;;15.82;10.32;;;3.30;99.90;;;;;;4162465;28;20033;-79
2021/01/08 10:30:57;;;;;;;16.70;10.75;;;3.30;99.90;;;;;;4161433;28;20172;-78
2021/01/08 10:32:57;;;;;;;12.27;9.85;;;3.30;99.90;;;;;;4160577;28;20029;-78
2021/01/08 10:34:58;;;;;;;16.10;11.10;;;3.40;99.90;;;;;;4161433;28;20033;-78
2021/01/08 10:36:59;;;;;;;15.45;10.80;;;3.50;99.90;;;;;;4162275;28;20067;-77
2021/01/08 10:38:59;;;;;;;13.23;9.55;;;3.50;99.90;;;;;;4161337;28;20421;-78